Time;durP1;ratioP1;P1;durP2;ratioP2;P2;SDS_P1;SDS_P2;PMS_P1;PMS_P2;Temp;Humidity;BMP_temperature;BMP_pressure;BME280_temperature;BME280_humidity;BME280_pressure;Samples;Min_cycle;Max_cycle;Signal;HPM_P1;HPM_P2
2021/09/13 00:00:35;;;;;;;2.63;0.90;;;13.60;88.20;;;;;;6285408;22;20034;-75
2021/09/13 00:03:04;;;;;;;2.25;1.23;;;13.70;87.60;;;;;;6318037;22;20095;-75
2021/09/13 00:05:37;;;;;;;2.55;1.10;;;13.70;87.80;;;;;;6317624;22;20030;-75
2021/09/13 00:08:06;;;;;;;3.20;1.08;;;13.80;87.30;;;;;;6318218;22;20019;-75
2021/09/13 00:10:33;;;;;;;3.70;1.25;;;13.90;87.40;;;;;;6317660;22;20214;-75
2021/09/13 00:13:01;;;;;;;9.02;3.50;;;14.00;87.10;;;;;;6317729;22;20015;-75
2021/09/13 00:15:30;;;;;;;5.38;1.60;;;14.00;87.00;;;;;;6315335;22;20020;-75
2021/09/13 00:18:00;;;;;;;10.32;1.80;;;14.10;87.00;;;;;;6287822;22;20371;-75
2021/09/13 00:20:29;;;;;;;2.55;1.10;;;14.00;87.10;;;;;;6315004;22;20026;-75
2021/09/13 00:22:57;;;;;;;2.55;1.17;;;14.00;87.40;;;;;;6315146;22;20023;-75
2021/09/13 00:25:24;;;;;;;2.60;1.33;;;14.00;87.30;;;;;;6313634;22;20345;-74
2021/09/13 00:27:54;;;;;;;2.53;1.20;;;14.00;87.20;;;;;;6315806;22;20015;-75
2021/09/13 00:30:27;;;;;;;4.15;1.30;;;13.90;87.30;;;;;;6314786;22;20034;-76
2021/09/13 00:32:54;;;;;;;3.80;1.35;;;14.00;87.30;;;;;;6314840;22;20038;-75
2021/09/13 00:35:25;;;;;;;4.22;1.30;;;14.00;86.80;;;;;;6312433;22;20226;-75
2021/09/13 00:37:53;;;;;;;3.13;1.40;;;14.00;86.60;;;;;;6314211;22;20027;-75
2021/09/13 00:40:21;;;;;;;2.72;1.30;;;13.90;87.00;;;;;;6287825;22;20025;-75
2021/09/13 00:42:49;;;;;;;1.80;0.80;;;13.90;87.00;;;;;;6313321;22;20113;-75
2021/09/13 00:45:17;;;;;;;3.08;1.27;;;13.80;87.20;;;;;;6314814;22;20035;-75
2021/09/13 00:47:46;;;;;;;3.22;1.40;;;13.80;87.20;;;;;;6314682;22;20311;-76
2021/09/13 00:50:13;;;;;;;4.20;1.33;;;14.00;86.80;;;;;;6315266;22;20506;-75
2021/09/13 00:52:44;;;;;;;8.65;2.60;;;13.90;86.80;;;;;;6288606;22;20354;-75
2021/09/13 00:55:11;;;;;;;4.47;1.92;;;13.80;87.10;;;;;;6317281;22;20011;-75
2021/09/13 00:57:39;;;;;;;6.88;1.55;;;13.90;87.20;;;;;;6316326;22;20026;-76
2021/09/13 01:00:07;;;;;;;4.65;1.77;;;13.90;87.20;;;;;;6313146;22;20022;-76
2021/09/13 01:02:34;;;;;;;5.80;1.98;;;13.90;87.10;;;;;;6315514;22;20031;-75
2021/09/13 01:05:03;;;;;;;5.43;2.25;;;14.00;87.20;;;;;;6316679;22;20030;-74
2021/09/13 01:07:31;;;;;;;7.03;2.30;;;13.90;87.70;;;;;;6288803;22;20019;-75
2021/09/13 01:09:58;;;;;;;3.88;1.70;;;13.90;87.70;;;;;;6289069;22;20029;-75
2021/09/13 01:12:26;;;;;;;4.65;1.90;;;14.00;87.70;;;;;;6289233;22;20023;-75
2021/09/13 01:15:07;;;;;;;6.26;1.73;;;13.90;87.50;;;;;;3884763;22;10001468;-75
2021/09/13 01:17:35;;;;;;;3.85;1.67;;;13.80;87.80;;;;;;3686241;22;10001862;-75
2021/09/13 01:20:04;;;;;;;4.03;1.60;;;13.80;87.90;;;;;;6316668;22;20023;-75
2021/09/13 01:22:35;;;;;;;3.75;1.98;;;13.70;88.10;;;;;;6288482;22;20015;-76
2021/09/13 01:25:09;;;;;;;5.40;2.28;;;13.70;88.30;;;;;;6289352;22;20023;-75
2021/09/13 01:27:36;;;;;;;6.13;1.95;;;13.70;88.10;;;;;;6315936;22;20027;-75
2021/09/13 01:30:07;;;;;;;3.15;1.80;;;13.60;88.30;;;;;;6286779;22;20023;-75
2021/09/13 01:32:34;;;;;;;8.18;1.83;;;13.60;88.20;;;;;;6263692;22;20015;-75
2021/09/13 01:35:01;;;;;;;3.97;1.80;;;13.60;88.50;;;;;;6289010;22;20223;-75
2021/09/13 01:37:33;;;;;;;4.70;1.98;;;13.50;88.60;;;;;;6315676;22;20019;-75
2021/09/13 01:40:12;;;;;;;4.85;1.88;;;13.50;88.60;;;;;;6287233;22;20244;-74
2021/09/13 01:42:39;;;;;;;6.45;1.52;;;13.60;88.30;;;;;;6288916;22;20070;-75
2021/09/13 01:45:08;;;;;;;4.38;1.90;;;13.60;88.30;;;;;;6284377;22;20026;-74
2021/09/13 01:47:41;;;;;;;9.30;1.90;;;13.50;88.40;;;;;;6284869;22;20085;-74
2021/09/13 01:50:10;;;;;;;4.47;1.80;;;13.40;88.50;;;;;;6285359;22;20245;-74
2021/09/13 01:52:37;;;;;;;5.63;1.75;;;13.30;88.60;;;;;;6284310;22;20171;-75
2021/09/13 01:55:05;;;;;;;4.22;1.70;;;13.20;88.60;;;;;;6282334;22;20038;-74
2021/09/13 01:57:35;;;;;;;6.55;2.20;;;13.20;88.60;;;;;;6283660;22;20042;-74
2021/09/13 02:00:02;;;;;;;4.65;1.73;;;13.10;88.70;;;;;;6284114;22;20023;-74
2021/09/13 02:02:41;;;;;;;4.03;1.60;;;13.00;88.90;;;;;;6283345;22;20020;-75
2021/09/13 02:05:12;;;;;;;3.38;1.60;;;12.90;88.90;;;;;;6282617;22;20027;-75
2021/09/13 02:07:39;;;;;;;2.88;1.20;;;12.80;89.00;;;;;;6282490;22;20020;-74
2021/09/13 02:10:08;;;;;;;5.53;1.77;;;12.70;89.30;;;;;;6282494;22;20061;-74
2021/09/13 02:12:37;;;;;;;6.57;1.83;;;12.80;89.20;;;;;;6281959;22;20024;-75
2021/09/13 02:15:05;;;;;;;2.83;1.55;;;12.80;89.30;;;;;;6283455;22;20294;-74
2021/09/13 02:17:36;;;;;;;3.40;1.70;;;12.80;89.30;;;;;;6281939;22;20038;-75
2021/09/13 02:20:10;;;;;;;3.55;1.63;;;12.90;89.30;;;;;;6282953;22;20355;-74
2021/09/13 02:22:37;;;;;;;4.35;1.90;;;12.90;89.20;;;;;;6281268;22;20300;-74
2021/09/13 02:25:05;;;;;;;7.03;2.17;;;12.90;89.20;;;;;;6282667;22;20042;-73
2021/09/13 02:27:33;;;;;;;3.92;2.10;;;12.90;89.10;;;;;;6280694;22;20081;-75
2021/09/13 02:30:01;;;;;;;5.22;1.75;;;13.00;89.10;;;;;;6283805;22;20023;-74
2021/09/13 02:32:33;;;;;;;4.53;2.00;;;13.10;88.90;;;;;;6282179;22;20319;-75
2021/09/13 02:35:04;;;;;;;3.78;1.67;;;13.20;88.90;;;;;;6282976;22;20079;-76
2021/09/13 02:37:33;;;;;;;4.53;1.75;;;13.20;88.90;;;;;;6282644;22;20031;-74
2021/09/13 02:40:00;;;;;;;5.25;1.85;;;13.20;88.90;;;;;;6283200;22;20074;-74
2021/09/13 02:42:30;;;;;;;6.80;2.20;;;13.20;88.80;;;;;;6282484;22;20026;-74
2021/09/13 02:44:57;;;;;;;2.72;1.50;;;13.20;88.50;;;;;;6288281;22;20049;-75
2021/09/13 02:47:26;;;;;;;3.92;1.75;;;13.20;88.40;;;;;;6315175;22;20257;-74
2021/09/13 02:49:55;;;;;;;3.90;1.48;;;13.20;88.30;;;;;;6289959;22;20234;-73
2021/09/13 02:52:25;;;;;;;3.17;1.40;;;13.10;88.30;;;;;;6288354;22;20023;-75
2021/09/13 02:54:52;;;;;;;4.47;1.73;;;13.10;88.40;;;;;;6288113;22;20021;-75
2021/09/13 02:57:19;;;;;;;5.00;1.85;;;13.20;88.20;;;;;;6289136;22;20015;-73
2021/09/13 02:59:50;;;;;;;3.95;1.80;;;13.20;88.20;;;;;;6288322;22;20188;-74
2021/09/13 03:02:17;;;;;;;5.30;1.98;;;13.10;88.40;;;;;;6284494;22;20015;-74
2021/09/13 03:04:46;;;;;;;2.83;1.70;;;13.20;88.30;;;;;;6314185;22;20015;-75
2021/09/13 03:07:15;;;;;;;2.97;1.70;;;13.20;88.40;;;;;;6288955;22;20018;-75
2021/09/13 03:09:42;;;;;;;4.80;1.80;;;13.20;88.20;;;;;;6315215;22;20027;-74
2021/09/13 03:12:10;;;;;;;4.22;2.22;;;13.20;88.30;;;;;;6289011;22;20015;-74
2021/09/13 03:14:43;;;;;;;7.72;2.13;;;13.20;88.20;;;;;;6288144;22;20054;-74
2021/09/13 03:17:14;;;;;;;4.00;1.50;;;13.10;88.30;;;;;;6289432;22;20015;-74
2021/09/13 03:19:43;;;;;;;5.38;1.70;;;13.00;88.70;;;;;;6288732;22;20031;-75
2021/09/13 03:22:15;;;;;;;3.88;1.63;;;13.00;88.90;;;;;;6289233;22;20022;-74
2021/09/13 03:24:42;;;;;;;5.60;2.53;;;13.10;88.60;;;;;;6288275;22;20020;-75
2021/09/13 03:27:09;;;;;;;5.63;2.20;;;13.10;88.20;;;;;;6289410;22;20061;-73
2021/09/13 03:29:36;;;;;;;5.97;2.42;;;13.00;88.40;;;;;;6314459;22;20027;-74
2021/09/13 03:32:04;;;;;;;4.95;2.30;;;13.00;88.50;;;;;;6289142;22;20246;-74
2021/09/13 03:34:32;;;;;;;4.95;1.98;;;13.00;88.60;;;;;;6288516;22;20078;-74
2021/09/13 03:37:02;;;;;;;3.60;1.88;;;13.10;88.40;;;;;;6286231;22;20108;-74
2021/09/13 03:39:33;;;;;;;3.25;1.83;;;13.10;88.20;;;;;;6284472;22;20038;-75
2021/09/13 03:42:01;;;;;;;3.70;1.50;;;13.10;88.10;;;;;;6314626;22;20068;-74
2021/09/13 03:44:29;;;;;;;5.03;2.20;;;12.90;88.10;;;;;;6286398;22;20033;-75
2021/09/13 03:47:04;;;;;;;3.50;1.55;;;12.90;87.90;;;;;;6287962;22;20023;-75
2021/09/13 03:49:43;;;;;;;3.55;1.83;;;12.80;88.20;;;;;;6286885;22;20448;-73
2021/09/13 03:52:10;;;;;;;6.88;1.98;;;12.80;88.30;;;;;;6287044;22;20338;-74
2021/09/13 03:54:40;;;;;;;4.50;1.90;;;12.60;88.60;;;;;;6313328;22;20027;-75
2021/09/13 03:57:08;;;;;;;4.35;1.65;;;12.60;88.40;;;;;;6287034;22;20310;-74
2021/09/13 03:59:36;;;;;;;4.50;1.75;;;12.60;88.50;;;;;;6287200;22;20049;-74
2021/09/13 04:02:04;;;;;;;7.13;2.10;;;12.60;88.50;;;;;;6281717;22;20039;-75
2021/09/13 04:04:33;;;;;;;4.05;1.42;;;12.60;88.50;;;;;;6286292;22;20027;-74
2021/09/13 04:07:15;;;;;;;4.57;1.60;;;12.60;88.20;;;;;;6287370;22;20069;-74
2021/09/13 04:10:19;;;;;;;3.60;1.90;;;12.60;88.40;;;;;;6230147;22;20020;-74
2021/09/13 04:13:09;;;;;;;3.45;1.77;;;12.50;88.20;;;;;;6296207;22;20078;-74
2021/09/13 04:15:46;;;;;;;6.20;2.00;;;12.50;88.20;;;;;;6290868;22;20029;-74
2021/09/13 04:18:34;;;;;;;6.68;2.28;;;12.50;88.10;;;;;;6317845;22;20078;-75
2021/09/13 04:21:19;;;;;;;8.25;1.92;;;12.40;88.20;;;;;;6319029;22;20291;-74
2021/09/13 04:24:22;;;;;;;5.88;1.92;;;12.40;88.30;;;;;;6165361;23;20028;-74
2021/09/13 04:27:25;;;;;;;3.92;1.92;;;12.30;88.40;;;;;;6317220;22;20031;-75
2021/09/13 04:30:08;;;;;;;7.18;2.10;;;12.40;88.10;;;;;;6291191;22;20070;-73
2021/09/13 04:32:58;;;;;;;6.95;2.10;;;12.40;88.30;;;;;;6244924;22;20253;-74
2021/09/13 04:35:48;;;;;;;8.20;1.95;;;12.60;87.80;;;;;;6290409;22;20015;-74
2021/09/13 04:38:34;;;;;;;4.00;1.73;;;12.50;87.90;;;;;;6317571;22;20029;-74
2021/09/13 04:41:19;;;;;;;4.18;1.98;;;12.60;87.80;;;;;;6317983;22;20034;-74
2021/09/13 04:44:06;;;;;;;6.47;2.30;;;12.60;87.70;;;;;;6317656;22;20034;-75
2021/09/13 04:46:59;;;;;;;5.15;1.88;;;12.70;87.50;;;;;;6293739;22;20038;-75
2021/09/13 04:49:40;;;;;;;4.63;1.95;;;12.80;87.30;;;;;;6316843;22;20027;-74
2021/09/13 04:52:31;;;;;;;5.63;2.20;;;12.70;87.20;;;;;;6290370;22;20067;-74
2021/09/13 04:54:58;;;;;;;5.95;1.83;;;12.70;87.20;;;;;;6318146;22;20023;-74
2021/09/13 04:57:26;;;;;;;4.25;1.95;;;12.60;87.20;;;;;;6292130;22;20027;-75
2021/09/13 04:59:55;;;;;;;12.65;2.92;;;12.60;87.50;;;;;;6319868;22;20023;-74
2021/09/13 05:02:23;;;;;;;5.70;2.28;;;12.60;87.40;;;;;;6288799;22;20326;-74
2021/09/13 05:04:50;;;;;;;5.05;2.60;;;12.60;87.20;;;;;;6291117;22;20077;-74
2021/09/13 05:07:20;;;;;;;5.35;2.20;;;12.50;87.50;;;;;;6318530;22;20023;-74
2021/09/13 05:09:47;;;;;;;;;;;12.60;87.30;;;;;;6290201;22;20330;-74
2021/09/13 05:12:15;;;;;;;2.90;1.73;;;12.60;87.10;;;;;;6317206;22;19915;-77
2021/09/13 05:14:42;;;;;;;6.50;2.20;;;12.60;87.20;;;;;;6288513;22;20019;-74
2021/09/13 05:17:11;;;;;;;4.85;2.20;;;12.60;87.10;;;;;;6288914;22;20019;-76
2021/09/13 05:19:38;;;;;;;4.57;2.08;;;12.60;87.00;;;;;;6314233;22;20027;-74
2021/09/13 05:22:07;;;;;;;4.30;2.00;;;12.70;87.00;;;;;;6288827;22;20060;-75
2021/09/13 05:24:35;;;;;;;6.13;2.80;;;12.60;86.90;;;;;;6314633;22;20042;-74
2021/09/13 05:27:06;;;;;;;6.70;2.65;;;12.60;86.70;;;;;;6288820;22;20023;-75
2021/09/13 05:29:36;;;;;;;6.25;2.33;;;12.70;86.40;;;;;;6285700;22;20021;-74
2021/09/13 05:32:04;;;;;;;6.82;2.28;;;12.70;86.40;;;;;;6288734;22;20030;-74
2021/09/13 05:34:33;;;;;;;6.00;2.47;;;12.60;86.60;;;;;;6287045;22;20056;-76
2021/09/13 05:37:00;;;;;;;5.57;2.13;;;12.70;86.60;;;;;;6284283;22;20072;-75
2021/09/13 05:39:31;;;;;;;4.28;1.90;;;12.80;86.00;;;;;;6311969;22;20023;-75
2021/09/13 05:42:01;;;;;;;4.20;2.22;;;12.80;85.70;;;;;;6287068;22;20033;-74
2021/09/13 05:44:39;;;;;;;4.47;2.35;;;12.70;85.90;;;;;;6286784;22;20326;-75
2021/09/13 05:47:07;;;;;;;3.92;1.73;;;12.70;85.90;;;;;;6286912;22;20023;-75
2021/09/13 05:49:36;;;;;;;4.82;2.30;;;12.70;85.80;;;;;;6286743;22;20027;-74
2021/09/13 05:52:04;;;;;;;4.53;2.15;;;12.70;85.90;;;;;;6314676;22;20023;-74
2021/09/13 05:54:39;;;;;;;4.70;1.80;;;12.70;85.90;;;;;;6288039;22;20027;-74
2021/09/13 05:57:07;;;;;;;4.20;2.40;;;12.70;86.00;;;;;;6316142;22;20015;-75
2021/09/13 05:59:35;;;;;;;4.75;2.28;;;12.90;85.30;;;;;;6288815;22;20057;-75
2021/09/13 06:02:10;;;;;;;8.05;3.22;;;12.80;85.40;;;;;;6283459;22;20039;-74
2021/09/13 06:04:42;;;;;;;4.80;2.28;;;12.80;85.30;;;;;;6288132;22;20096;-75
2021/09/13 06:07:11;;;;;;;5.90;2.17;;;12.80;85.30;;;;;;6288672;22;20314;-74
2021/09/13 06:09:39;;;;;;;4.53;1.98;;;12.80;85.50;;;;;;6288765;22;20212;-74
2021/09/13 06:12:07;;;;;;;6.05;1.98;;;12.90;85.40;;;;;;6314733;22;20022;-75
2021/09/13 06:14:48;;;;;;;4.35;2.10;;;12.80;86.00;;;;;;6288748;22;20204;-74
2021/09/13 06:17:16;;;;;;;4.25;1.88;;;12.90;85.80;;;;;;6316790;22;20015;-74
2021/09/13 06:19:47;;;;;;;4.05;2.15;;;12.90;85.70;;;;;;6288143;22;20062;-74
2021/09/13 06:22:18;;;;;;;5.32;2.22;;;12.90;85.70;;;;;;6288810;22;20016;-74
2021/09/13 06:24:45;;;;;;;8.48;2.88;;;12.90;85.70;;;;;;6288317;22;20030;-75
2021/09/13 06:27:13;;;;;;;4.45;2.35;;;12.90;85.80;;;;;;6286440;22;20365;-74
2021/09/13 06:29:42;;;;;;;6.57;2.58;;;12.90;85.70;;;;;;6315686;22;20019;-75
2021/09/13 06:32:10;;;;;;;7.75;2.40;;;12.90;85.90;;;;;;6288336;22;20260;-74
2021/09/13 06:34:39;;;;;;;5.13;2.13;;;12.90;86.00;;;;;;6288067;22;20019;-74
2021/09/13 06:37:07;;;;;;;4.35;2.40;;;13.00;86.00;;;;;;6289492;22;20018;-72
2021/09/13 06:39:36;;;;;;;5.75;2.72;;;13.00;86.00;;;;;;6287805;22;20026;-74
2021/09/13 06:42:04;;;;;;;3.75;2.03;;;13.10;86.00;;;;;;6289042;22;20065;-75
2021/09/13 06:44:39;;;;;;;4.85;2.10;;;13.10;85.80;;;;;;6288167;22;20019;-74
2021/09/13 06:47:07;;;;;;;3.80;1.50;;;13.10;86.10;;;;;;6315905;22;20078;-74
2021/09/13 06:49:36;;;;;;;2.78;1.65;;;13.00;86.00;;;;;;6288196;22;20026;-74
2021/09/13 06:52:05;;;;;;;3.35;1.48;;;12.90;86.40;;;;;;6288469;22;20144;-76
2021/09/13 06:54:34;;;;;;;2.72;1.40;;;12.90;86.80;;;;;;6286349;22;20354;-74
2021/09/13 06:57:02;;;;;;;3.15;1.58;;;12.90;87.00;;;;;;6314223;22;20352;-74
2021/09/13 06:59:29;;;;;;;4.00;1.80;;;12.90;86.90;;;;;;6314307;22;20019;-75
2021/09/13 07:01:57;;;;;;;2.88;1.60;;;13.10;87.00;;;;;;6308819;22;20487;-75
2021/09/13 07:04:25;;;;;;;2.67;1.48;;;13.10;86.90;;;;;;6314056;22;20342;-75
2021/09/13 07:06:52;;;;;;;2.85;1.45;;;13.20;86.80;;;;;;6314111;22;20033;-75
2021/09/13 07:09:20;;;;;;;6.10;2.85;;;13.20;86.30;;;;;;6314254;22;20035;-75
2021/09/13 07:11:49;;;;;;;5.03;1.83;;;13.40;86.20;;;;;;6313597;22;20031;-75
2021/09/13 07:14:17;;;;;;;2.75;1.48;;;13.40;85.90;;;;;;6314768;22;20020;-75
2021/09/13 07:16:45;;;;;;;4.55;1.60;;;13.40;86.40;;;;;;6313174;22;20227;-74
2021/09/13 07:19:12;;;;;;;4.38;1.75;;;13.50;86.20;;;;;;6314260;22;20041;-74
2021/09/13 07:21:40;;;;;;;4.25;1.90;;;13.60;86.20;;;;;;6313500;22;20034;-75
2021/09/13 07:24:08;;;;;;;3.22;1.98;;;13.70;85.80;;;;;;6314601;22;20030;-74
2021/09/13 07:26:35;;;;;;;4.68;2.15;;;13.90;85.50;;;;;;6311435;22;20027;-75
2021/09/13 07:29:04;;;;;;;4.90;2.88;;;14.10;85.10;;;;;;6287178;22;20070;-74
2021/09/13 07:31:31;;;;;;;6.00;2.40;;;14.20;84.50;;;;;;6313870;22;20027;-76
2021/09/13 07:33:59;;;;;;;3.45;2.15;;;14.30;84.50;;;;;;6315158;22;20019;-75
2021/09/13 07:36:26;;;;;;;6.53;2.35;;;14.30;84.30;;;;;;6316281;22;20027;-75
2021/09/13 07:38:53;;;;;;;4.22;2.08;;;14.50;84.20;;;;;;6316304;22;20023;-75
2021/09/13 07:41:21;;;;;;;5.28;2.65;;;14.70;83.80;;;;;;6316849;22;20023;-75
2021/09/13 07:43:48;;;;;;;6.18;2.53;;;14.80;83.40;;;;;;6314646;22;20023;-75
2021/09/13 07:46:17;;;;;;;8.20;2.92;;;15.00;83.50;;;;;;6314657;22;20078;-75
2021/09/13 07:48:44;;;;;;;11.40;3.03;;;15.00;82.80;;;;;;6316877;22;20249;-75
2021/09/13 07:51:11;;;;;;;5.38;2.78;;;15.20;82.70;;;;;;6317368;22;20023;-75
2021/09/13 07:53:38;;;;;;;7.40;2.67;;;15.30;82.40;;;;;;6317518;22;20038;-76
2021/09/13 07:56:06;;;;;;;5.93;2.55;;;15.40;82.30;;;;;;6290123;22;20007;-75
2021/09/13 07:58:33;;;;;;;4.55;2.28;;;15.60;82.00;;;;;;6317006;22;20078;-76
2021/09/13 08:01:00;;;;;;;7.43;2.58;;;15.70;81.70;;;;;;6312320;22;20022;-74
2021/09/13 08:03:30;;;;;;;5.40;2.28;;;15.80;81.10;;;;;;6289483;22;20034;-74
2021/09/13 08:05:57;;;;;;;7.43;2.58;;;15.90;81.10;;;;;;6317487;22;20069;-74
2021/09/13 08:08:25;;;;;;;4.47;2.50;;;16.00;80.50;;;;;;6317365;22;20060;-74
2021/09/13 08:10:52;;;;;;;4.35;2.55;;;16.20;80.50;;;;;;6317569;22;20038;-74
2021/09/13 08:13:19;;;;;;;4.75;2.92;;;16.30;79.90;;;;;;6317364;22;20372;-74
2021/09/13 08:15:46;;;;;;;6.68;2.85;;;16.30;80.40;;;;;;6317368;22;20015;-74
2021/09/13 08:18:14;;;;;;;8.45;2.90;;;16.50;79.90;;;;;;6316902;22;20027;-74
2021/09/13 08:20:44;;;;;;;5.72;3.00;;;16.60;79.90;;;;;;6317356;22;20027;-74
2021/09/13 08:23:12;;;;;;;5.53;2.90;;;16.60;79.50;;;;;;6287439;22;20258;-74
2021/09/13 08:25:39;;;;;;;4.50;2.50;;;16.80;79.20;;;;;;6316536;22;20034;-75
2021/09/13 08:28:20;;;;;;;5.75;2.92;;;17.00;78.80;;;;;;6316641;22;20285;-74
2021/09/13 08:30:47;;;;;;;6.78;2.55;;;17.10;78.90;;;;;;6316356;22;20021;-74
2021/09/13 08:33:14;;;;;;;6.55;3.45;;;17.20;79.20;;;;;;6317120;22;20023;-74
2021/09/13 08:35:43;;;;;;;7.40;3.28;;;17.40;77.90;;;;;;6314504;22;20392;-74
2021/09/13 08:38:10;;;;;;;6.53;3.38;;;17.60;77.90;;;;;;6315494;22;20035;-73
2021/09/13 08:40:38;;;;;;;5.80;3.35;;;17.80;77.30;;;;;;6314616;22;20064;-74
2021/09/13 08:43:05;;;;;;;6.45;2.63;;;17.90;76.90;;;;;;6315195;22;20026;-74
2021/09/13 08:45:38;;;;;;;5.70;2.67;;;18.10;76.60;;;;;;6282277;22;20031;-74
2021/09/13 08:48:12;;;;;;;8.05;3.58;;;18.40;76.40;;;;;;6284101;22;20030;-74
2021/09/13 08:51:03;;;;;;;5.65;2.80;;;18.60;75.80;;;;;;6283813;22;20028;-74
2021/09/13 08:53:35;;;;;;;7.30;3.35;;;18.80;74.70;;;;;;6283214;22;20045;-74
2021/09/13 08:56:04;;;;;;;6.03;3.10;;;19.10;75.10;;;;;;6284556;22;20050;-74
2021/09/13 08:58:34;;;;;;;10.57;3.58;;;19.20;74.10;;;;;;6284539;22;20019;-74
2021/09/13 09:01:02;;;;;;;14.95;4.55;;;19.40;73.70;;;;;;6279099;22;20024;-74
2021/09/13 09:03:29;;;;;;;7.53;3.55;;;19.60;72.30;;;;;;6283030;22;20027;-74
2021/09/13 09:05:57;;;;;;;6.80;3.53;;;19.70;71.10;;;;;;6282760;22;20061;-74
2021/09/13 09:08:28;;;;;;;9.65;3.60;;;20.00;70.80;;;;;;6284797;22;20350;-74
2021/09/13 09:11:00;;;;;;;9.13;3.85;;;20.30;69.30;;;;;;6284221;22;20099;-74
2021/09/13 09:13:37;;;;;;;6.20;3.50;;;20.40;68.70;;;;;;6283828;22;20039;-74
2021/09/13 09:16:06;;;;;;;7.35;3.50;;;20.70;68.30;;;;;;6285865;22;20214;-74
2021/09/13 09:18:40;;;;;;;7.78;3.63;;;20.90;67.50;;;;;;6283118;22;20027;-74
2021/09/13 09:21:08;;;;;;;5.07;2.78;;;20.90;67.40;;;;;;6284762;22;20315;-74
2021/09/13 09:23:55;;;;;;;10.77;9.07;;;21.30;66.50;;;;;;6284726;22;20238;-74
2021/09/13 09:26:23;;;;;;;11.73;8.73;;;21.60;65.10;;;;;;6285830;22;20043;-74
2021/09/13 09:28:50;;;;;;;7.38;3.20;;;21.90;63.70;;;;;;6285106;22;20016;-74
2021/09/13 09:31:34;;;;;;;9.15;6.05;;;22.10;63.10;;;;;;6283959;22;20061;-75
2021/09/13 09:34:14;;;;;;;9.15;3.13;;;22.50;62.60;;;;;;6285417;22;20026;-74
2021/09/13 09:36:41;;;;;;;;;;;22.80;61.10;;;;;;6285517;22;20073;-74
2021/09/13 09:39:12;;;;;;;9.80;6.25;;;23.30;59.30;;;;;;6285954;22;19918;-75
2021/09/13 09:41:44;;;;;;;6.30;3.30;;;24.10;56.80;;;;;;6284886;22;20027;-75
2021/09/13 09:44:12;;;;;;;6.05;3.47;;;24.50;54.00;;;;;;6285275;22;20290;-74
2021/09/13 09:46:41;;;;;;;7.30;3.67;;;25.10;51.50;;;;;;6314246;22;20295;-74
2021/09/13 09:49:10;;;;;;;10.63;4.03;;;25.60;48.90;;;;;;6289037;22;20015;-74
2021/09/13 09:51:39;;;;;;;8.70;3.05;;;25.80;48.40;;;;;;6316473;22;20078;-74
2021/09/13 09:54:11;;;;;;;6.00;3.40;;;26.00;47.40;;;;;;6316594;22;20023;-74
2021/09/13 09:56:48;;;;;;;9.55;3.13;;;26.70;47.80;;;;;;6315699;22;20011;-74
2021/09/13 09:59:18;;;;;;;4.15;2.40;;;26.90;45.80;;;;;;6317030;22;20341;-74
2021/09/13 10:01:47;;;;;;;5.07;2.00;;;27.00;46.30;;;;;;6283155;22;20274;-75
2021/09/13 10:04:16;;;;;;;3.77;2.00;;;27.60;45.40;;;;;;6316869;22;20015;-73
2021/09/13 10:06:45;;;;;;;5.15;2.28;;;27.80;44.20;;;;;;6317329;22;20069;-73
2021/09/13 10:09:13;;;;;;;4.63;1.67;;;28.90;42.00;;;;;;6317254;22;20018;-74
2021/09/13 10:11:41;;;;;;;4.68;2.20;;;29.50;41.70;;;;;;6315337;22;20027;-73
2021/09/13 10:14:11;;;;;;;2.70;1.48;;;30.40;40.50;;;;;;6313229;22;20038;-73
2021/09/13 10:16:39;;;;;;;3.88;1.80;;;30.90;38.70;;;;;;6313188;22;20023;-73
2021/09/13 10:19:07;;;;;;;2.83;1.63;;;31.20;37.80;;;;;;6313733;22;20015;-72
2021/09/13 10:21:35;;;;;;;4.85;2.03;;;31.80;36.80;;;;;;6311910;22;20027;-72
2021/09/13 10:24:03;;;;;;;6.50;2.05;;;31.80;35.70;;;;;;6313593;22;20026;-73
2021/09/13 10:26:31;;;;;;;4.50;2.08;;;31.50;35.40;;;;;;6313478;22;20019;-74
2021/09/13 10:29:20;;;;;;;4.28;2.00;;;31.50;35.50;;;;;;6286123;22;20030;-74
2021/09/13 10:32:01;;;;;;;3.83;1.50;;;31.70;35.80;;;;;;6313340;22;20026;-74
2021/09/13 10:34:32;;;;;;;2.83;1.38;;;31.50;35.20;;;;;;6284666;22;20033;-73
2021/09/13 10:37:04;;;;;;;4.55;2.08;;;31.80;35.60;;;;;;6313053;22;20019;-73
2021/09/13 10:40:03;;;;;;;3.65;1.77;;;32.00;34.10;;;;;;6313843;22;20077;-74
2021/09/13 10:42:33;;;;;;;3.90;2.00;;;32.90;33.80;;;;;;6189896;23;20028;-74
2021/09/13 10:45:29;;;;;;;4.50;2.00;;;33.00;32.30;;;;;;6289335;22;20027;-73
2021/09/13 10:48:06;;;;;;;5.95;2.40;;;32.90;32.00;;;;;;6313994;22;20326;-72
2021/09/13 10:50:39;;;;;;;3.92;2.13;;;32.80;32.60;;;;;;6313443;22;20033;-73
2021/09/13 10:53:34;;;;;;;4.97;1.77;;;33.00;32.10;;;;;;6315293;22;20022;-74
2021/09/13 10:56:04;;;;;;;3.63;1.75;;;33.50;30.40;;;;;;6316018;22;20035;-73
2021/09/13 10:58:43;;;;;;;3.05;1.42;;;34.00;30.60;;;;;;6315198;22;20034;-73
2021/09/13 11:01:33;;;;;;;4.47;1.65;;;34.70;28.50;;;;;;6310378;22;20019;-75
2021/09/13 11:04:05;;;;;;;3.03;1.33;;;34.40;28.50;;;;;;6305954;22;20023;-73
2021/09/13 11:06:46;;;;;;;4.85;1.70;;;34.30;28.70;;;;;;6315473;22;20023;-74
2021/09/13 11:09:25;;;;;;;3.40;1.38;;;34.00;27.60;;;;;;6314268;22;20030;-73
2021/09/13 11:11:56;;;;;;;3.38;1.50;;;33.10;28.00;;;;;;6313433;22;20019;-73
2021/09/13 11:14:25;;;;;;;4.00;1.27;;;34.60;27.90;;;;;;6315081;22;20033;-73
2021/09/13 11:16:55;;;;;;;2.85;1.33;;;34.80;26.50;;;;;;6315103;22;20015;-72
2021/09/13 11:19:26;;;;;;;3.50;1.83;;;35.20;28.60;;;;;;6314970;22;20033;-75
2021/09/13 11:21:56;;;;;;;3.35;1.38;;;35.70;27.20;;;;;;6321971;22;20023;-74
2021/09/13 11:24:25;;;;;;;4.57;1.25;;;35.10;27.90;;;;;;6318373;22;20031;-73
2021/09/13 11:26:57;;;;;;;2.45;1.42;;;34.80;27.10;;;;;;6318239;22;20015;-72
2021/09/13 11:29:27;;;;;;;5.15;1.60;;;35.00;27.30;;;;;;6317472;22;20019;-72
2021/09/13 11:31:58;;;;;;;6.35;1.40;;;35.50;26.70;;;;;;6318582;22;20038;-72
2021/09/13 11:34:32;;;;;;;2.53;1.17;;;36.10;25.70;;;;;;6317236;22;20042;-73
2021/09/13 11:37:08;;;;;;;2.30;1.08;;;36.30;25.30;;;;;;6316809;22;20015;-73
2021/09/13 11:39:39;;;;;;;2.15;1.08;;;36.60;25.10;;;;;;6317575;22;20027;-73
2021/09/13 11:42:09;;;;;;;1.73;0.98;;;37.00;24.40;;;;;;6316936;22;20023;-74
2021/09/13 11:44:45;;;;;;;1.77;1.13;;;36.80;24.20;;;;;;6316194;22;20050;-74
2021/09/13 11:47:16;;;;;;;1.90;1.20;;;37.00;24.10;;;;;;6317283;22;20014;-72
2021/09/13 11:49:48;;;;;;;2.85;1.15;;;38.20;24.90;;;;;;6316625;22;20026;-73
2021/09/13 11:52:27;;;;;;;2.75;1.10;;;38.20;23.90;;;;;;6290118;22;20015;-74
2021/09/13 11:55:00;;;;;;;3.10;1.08;;;37.30;25.40;;;;;;6315067;22;20072;-72
2021/09/13 11:57:38;;;;;;;2.83;1.30;;;37.60;23.60;;;;;;6317320;22;20034;-73
2021/09/13 12:00:13;;;;;;;3.03;1.33;;;37.00;24.10;;;;;;6284098;22;20245;-73
2021/09/13 12:02:45;;;;;;;2.67;1.25;;;37.10;24.40;;;;;;6287739;22;20347;-74
2021/09/13 12:05:15;;;;;;;2.92;0.98;;;38.10;23.30;;;;;;6316413;22;20023;-72
2021/09/13 12:07:44;;;;;;;3.55;1.08;;;38.60;23.20;;;;;;6319263;22;20033;-72
2021/09/13 12:10:37;;;;;;;3.58;1.23;;;38.10;23.70;;;;;;6323294;22;20023;-73
2021/09/13 12:13:09;;;;;;;5.82;1.60;;;36.60;24.30;;;;;;6293345;22;20019;-73
2021/09/13 12:15:39;;;;;;;3.22;1.40;;;36.40;24.90;;;;;;6314456;22;20015;-72
2021/09/13 12:18:13;;;;;;;3.20;1.23;;;36.40;24.90;;;;;;6315083;22;20330;-73
2021/09/13 12:20:44;;;;;;;2.28;1.23;;;35.80;25.70;;;;;;6287067;22;20078;-72
2021/09/13 12:23:13;;;;;;;2.92;1.20;;;36.80;24.70;;;;;;6318241;22;20016;-72
2021/09/13 12:25:43;;;;;;;2.80;1.30;;;37.50;23.80;;;;;;6288539;22;20046;-73
2021/09/13 12:28:11;;;;;;;3.45;1.25;;;38.30;23.00;;;;;;6315037;22;20073;-73
2021/09/13 12:30:41;;;;;;;4.45;1.40;;;38.40;23.10;;;;;;6318182;22;20049;-74
2021/09/13 12:33:11;;;;;;;1.40;1.02;;;39.00;23.10;;;;;;6321775;22;20038;-73
2021/09/13 12:35:42;;;;;;;5.60;1.45;;;38.90;22.30;;;;;;6317189;22;20060;-73
2021/09/13 12:38:13;;;;;;;4.00;1.20;;;38.40;23.40;;;;;;6320631;22;20050;-72
2021/09/13 12:40:53;;;;;;;2.85;1.00;;;38.60;23.00;;;;;;6317822;22;20113;-72
2021/09/13 12:43:25;;;;;;;2.53;1.27;;;39.30;22.10;;;;;;6293886;22;20016;-73
2021/09/13 12:46:05;;;;;;;4.80;1.27;;;39.20;22.80;;;;;;6318188;22;20350;-74
2021/09/13 12:48:36;;;;;;;2.47;1.30;;;39.40;22.30;;;;;;6314765;22;20046;-74
2021/09/13 12:51:05;;;;;;;2.13;1.23;;;39.50;22.80;;;;;;6316860;22;20033;-72
2021/09/13 12:53:33;;;;;;;2.33;1.10;;;39.50;21.90;;;;;;6315757;22;20020;-72
2021/09/13 12:56:13;;;;;;;3.13;1.02;;;39.40;22.60;;;;;;6317131;22;20245;-73
2021/09/13 12:58:40;;;;;;;2.78;1.23;;;39.00;23.50;;;;;;6321044;22;20080;-71
2021/09/13 13:01:26;;;;;;;2.70;1.30;;;39.70;22.70;;;;;;6312920;22;20052;-74
2021/09/13 13:04:01;;;;;;;4.00;1.40;;;39.00;22.60;;;;;;6318018;22;20083;-73
2021/09/13 13:06:31;;;;;;;;;;;39.20;22.40;;;;;;6316688;22;20034;-73
2021/09/13 13:09:00;;;;;;;2.53;1.15;;;39.30;21.70;;;;;;6316615;22;19911;-72